Time;durP1;ratioP1;P1;durP2;ratioP2;P2;SDS_P1;SDS_P2;PMS_P1;PMS_P2;Temp;Humidity;BMP_temperature;BMP_pressure;BME280_temperature;BME280_humidity;BME280_pressure;Samples;Min_cycle;Max_cycle;Signal;HPM_P1;HPM_P2
2022/10/08 00:02:12;;;;;;;7.30;2.53;;;12.90;99.90;;;;;;4993946;28;20229;-47
2022/10/08 00:04:40;;;;;;;13.63;2.87;;;12.90;99.90;;;;;;4994204;28;20629;-50
2022/10/08 00:07:08;;;;;;;9.60;2.67;;;12.90;99.90;;;;;;4994376;28;20622;-49
2022/10/08 00:09:36;;;;;;;11.40;3.10;;;12.90;99.90;;;;;;4994588;28;20237;-48
2022/10/08 00:12:04;;;;;;;7.93;2.40;;;12.80;99.90;;;;;;4994240;28;20592;-50
2022/10/08 00:14:34;;;;;;;12.67;3.20;;;12.90;99.90;;;;;;4994102;28;20240;-49
2022/10/08 00:17:02;;;;;;;10.00;2.83;;;12.80;99.90;;;;;;4994306;28;20635;-49
2022/10/08 00:19:30;;;;;;;10.10;3.00;;;12.80;99.90;;;;;;4994000;28;20240;-49
2022/10/08 00:21:58;;;;;;;12.57;3.20;;;12.80;99.90;;;;;;4994139;28;20240;-50
2022/10/08 00:24:26;;;;;;;12.23;2.73;;;12.70;99.90;;;;;;4994115;28;20597;-50
2022/10/08 00:26:54;;;;;;;10.40;4.10;;;12.70;99.90;;;;;;4993780;28;20239;-50
2022/10/08 00:29:22;;;;;;;13.40;3.23;;;12.70;99.90;;;;;;4992909;28;20245;-48
2022/10/08 00:31:52;;;;;;;11.80;2.90;;;12.70;99.90;;;;;;4993474;28;20237;-48
2022/10/08 00:34:22;;;;;;;9.30;2.77;;;12.60;99.90;;;;;;4994209;28;20588;-48
2022/10/08 00:36:51;;;;;;;9.87;2.57;;;12.60;99.90;;;;;;4993991;28;20660;-48
2022/10/08 00:39:21;;;;;;;7.60;2.83;;;12.60;99.90;;;;;;4993943;28;20704;-50
2022/10/08 00:41:52;;;;;;;10.47;2.87;;;12.60;99.90;;;;;;4993769;28;20230;-51
2022/10/08 00:44:56;;;;;;;11.00;3.10;;;12.70;99.90;;;;;;4993757;28;20291;-49
2022/10/08 00:47:34;;;;;;;9.20;2.90;;;12.60;99.90;;;;;;4993584;28;20231;-50
2022/10/08 00:50:08;;;;;;;9.17;3.10;;;12.60;99.90;;;;;;4993389;28;20228;-47
2022/10/08 00:52:42;;;;;;;8.87;2.43;;;12.60;99.90;;;;;;4993634;28;20719;-50
2022/10/08 00:55:14;;;;;;;6.07;2.57;;;12.60;99.90;;;;;;4993977;28;20677;-48
2022/10/08 00:57:43;;;;;;;10.60;3.07;;;12.60;99.90;;;;;;4993721;28;20703;-49
2022/10/08 01:00:15;;;;;;;9.73;3.07;;;12.50;99.90;;;;;;4993091;28;20244;-49
2022/10/08 01:02:44;;;;;;;10.17;2.80;;;12.50;99.90;;;;;;4992974;28;20229;-50
2022/10/08 01:05:15;;;;;;;9.93;2.53;;;12.50;99.90;;;;;;4988479;28;20631;-51
2022/10/08 01:07:48;;;;;;;12.13;3.23;;;12.50;99.90;;;;;;4992752;28;20233;-50
2022/10/08 01:10:25;;;;;;;11.27;2.83;;;12.50;99.90;;;;;;4993319;28;20307;-50
2022/10/08 01:13:10;;;;;;;10.23;3.07;;;12.50;99.90;;;;;;4993380;28;20229;-48
2022/10/08 01:15:44;;;;;;;12.80;3.20;;;12.50;99.90;;;;;;4992647;28;20241;-51
2022/10/08 01:18:25;;;;;;;9.43;3.20;;;12.50;99.90;;;;;;4993024;28;20232;-48
2022/10/08 01:21:05;;;;;;;9.97;2.70;;;12.50;99.90;;;;;;4993103;28;20320;-48
2022/10/08 01:24:06;;;;;;;12.07;3.03;;;12.50;99.90;;;;;;4993003;28;20232;-50
2022/10/08 01:26:45;;;;;;;11.20;2.83;;;12.50;99.90;;;;;;4992511;28;20231;-49
2022/10/08 01:29:20;;;;;;;9.93;3.30;;;12.50;99.90;;;;;;4982525;28;20299;-49
2022/10/08 01:31:52;;;;;;;10.27;2.53;;;12.60;99.90;;;;;;4992499;28;20814;-51
2022/10/08 01:34:27;;;;;;;9.33;3.10;;;12.60;99.90;;;;;;4992365;28;20229;-51
2022/10/08 01:36:58;;;;;;;7.10;3.10;;;12.60;99.90;;;;;;4993031;28;20231;-48
2022/10/08 01:39:31;;;;;;;9.83;2.87;;;12.60;99.90;;;;;;4992733;28;20230;-50
2022/10/08 01:42:01;;;;;;;7.80;3.23;;;12.50;99.90;;;;;;4974000;28;20632;-51
2022/10/08 01:44:34;;;;;;;12.37;3.20;;;12.50;99.90;;;;;;4975561;28;20233;-49
2022/10/08 01:47:07;;;;;;;10.57;3.20;;;12.60;99.90;;;;;;4992678;28;20287;-49
2022/10/08 01:49:41;;;;;;;10.00;2.80;;;12.60;99.90;;;;;;4992469;28;20236;-48
2022/10/08 01:52:15;;;;;;;9.60;2.87;;;12.60;99.90;;;;;;4993280;28;20761;-49
2022/10/08 01:54:45;;;;;;;12.50;2.90;;;12.60;99.90;;;;;;4992853;28;20233;-47
2022/10/08 01:57:13;;;;;;;8.97;3.33;;;12.60;99.90;;;;;;4993590;28;20308;-48
2022/10/08 01:59:48;;;;;;;9.40;3.07;;;12.60;99.90;;;;;;4993039;28;20232;-49
2022/10/08 02:02:20;;;;;;;11.17;3.03;;;12.60;99.90;;;;;;4992548;28;20243;-49
2022/10/08 02:04:50;;;;;;;9.67;2.90;;;12.50;99.90;;;;;;4992910;28;20238;-50
2022/10/08 02:07:20;;;;;;;13.63;3.53;;;12.50;99.90;;;;;;4993167;28;20275;-48
2022/10/08 02:09:52;;;;;;;9.43;3.10;;;12.50;99.90;;;;;;4993351;28;20253;-50
2022/10/08 02:12:21;;;;;;;12.03;3.80;;;12.60;99.90;;;;;;4992774;28;20252;-49
2022/10/08 02:14:53;;;;;;;15.10;4.10;;;12.60;99.90;;;;;;4992726;28;20237;-50
2022/10/08 02:17:28;;;;;;;14.03;3.40;;;12.50;99.90;;;;;;4992628;28;20229;-48
2022/10/08 02:20:00;;;;;;;9.90;3.50;;;12.50;99.90;;;;;;4992912;28;20244;-48
2022/10/08 02:22:33;;;;;;;10.53;3.50;;;12.60;99.90;;;;;;4992604;28;20240;-50
2022/10/08 02:25:08;;;;;;;12.10;3.70;;;12.50;99.90;;;;;;4993084;28;20254;-49
2022/10/08 02:27:48;;;;;;;9.73;3.43;;;12.60;99.90;;;;;;4995699;28;20243;-48
2022/10/08 02:30:17;;;;;;;11.53;3.93;;;12.70;99.90;;;;;;4995845;28;20739;-51
2022/10/08 02:32:50;;;;;;;11.63;3.83;;;12.60;99.90;;;;;;4995859;28;20244;-49
2022/10/08 02:35:24;;;;;;;13.37;3.53;;;12.60;99.90;;;;;;4996261;28;20221;-48
2022/10/08 02:37:57;;;;;;;11.87;3.63;;;12.70;99.90;;;;;;4995790;28;20604;-47
2022/10/08 02:40:28;;;;;;;13.20;4.10;;;12.60;99.90;;;;;;4995197;28;20217;-49
2022/10/08 02:43:03;;;;;;;11.27;3.27;;;12.60;99.90;;;;;;4996211;28;20314;-51
2022/10/08 02:45:37;;;;;;;14.40;4.37;;;12.60;99.90;;;;;;4995583;28;20211;-48
2022/10/08 02:48:10;;;;;;;13.33;4.00;;;12.60;99.90;;;;;;4995119;28;20270;-49
2022/10/08 02:50:42;;;;;;;14.63;3.93;;;12.60;99.90;;;;;;4995782;28;20221;-49
2022/10/08 02:53:13;;;;;;;8.67;3.37;;;12.60;99.90;;;;;;4995929;28;20631;-49
2022/10/08 02:55:49;;;;;;;11.27;3.33;;;12.70;99.90;;;;;;4995412;28;20218;-50
2022/10/08 02:58:17;;;;;;;10.23;3.10;;;12.60;99.90;;;;;;4995915;28;20221;-48
2022/10/08 03:00:53;;;;;;;10.70;3.60;;;12.70;99.90;;;;;;4994905;28;20248;-48
2022/10/08 03:03:25;;;;;;;14.07;4.13;;;12.70;99.90;;;;;;4990342;28;20225;-48
2022/10/08 03:05:54;;;;;;;9.03;3.20;;;12.60;99.90;;;;;;4995745;28;20243;-50
2022/10/08 03:08:23;;;;;;;12.47;3.47;;;12.80;99.90;;;;;;4995587;28;20241;-48
2022/10/08 03:10:51;;;;;;;14.10;4.07;;;12.70;99.90;;;;;;4995471;28;20245;-49
2022/10/08 03:13:19;;;;;;;7.33;3.17;;;12.70;99.90;;;;;;4995036;28;20265;-50
2022/10/08 03:15:52;;;;;;;11.03;3.13;;;12.70;99.90;;;;;;4995482;28;20682;-48
2022/10/08 03:18:23;;;;;;;11.27;3.60;;;12.70;99.90;;;;;;4995276;28;20229;-48
2022/10/08 03:20:53;;;;;;;9.77;3.50;;;12.70;99.90;;;;;;4995386;28;20227;-49
2022/10/08 03:23:21;;;;;;;8.67;3.20;;;12.80;99.90;;;;;;4995282;28;20226;-50
2022/10/08 03:25:49;;;;;;;10.70;3.27;;;12.80;99.90;;;;;;4994714;28;20235;-48
2022/10/08 03:28:17;;;;;;;10.63;3.57;;;12.70;99.90;;;;;;4992538;28;20229;-49
2022/10/08 03:30:46;;;;;;;11.90;3.20;;;12.70;99.90;;;;;;4994195;28;20241;-51
2022/10/08 03:33:15;;;;;;;9.50;2.87;;;12.80;99.90;;;;;;4993961;28;20224;-49
2022/10/08 03:35:45;;;;;;;9.80;3.13;;;12.70;99.90;;;;;;4994513;28;20241;-49
2022/10/08 03:38:14;;;;;;;10.27;2.97;;;12.70;99.90;;;;;;4993853;28;20333;-48
2022/10/08 03:40:42;;;;;;;10.30;3.50;;;12.70;99.90;;;;;;4994387;28;20292;-50
2022/10/08 03:43:10;;;;;;;9.63;3.17;;;12.70;99.90;;;;;;4994303;28;20256;-48
2022/10/08 03:45:38;;;;;;;13.63;3.50;;;12.70;99.90;;;;;;4991552;28;20226;-49
2022/10/08 03:48:06;;;;;;;9.73;2.87;;;12.70;99.90;;;;;;4994373;28;20720;-50
2022/10/08 03:50:36;;;;;;;9.07;3.13;;;12.70;99.90;;;;;;4994488;28;20581;-51
2022/10/08 03:53:04;;;;;;;9.43;3.00;;;12.80;99.90;;;;;;4994404;28;20688;-48
2022/10/08 03:55:35;;;;;;;9.60;2.90;;;12.70;99.90;;;;;;4993899;28;20751;-51
2022/10/08 03:58:03;;;;;;;10.77;3.13;;;12.70;99.90;;;;;;4994717;28;20225;-47
2022/10/08 04:00:31;;;;;;;8.63;3.50;;;12.70;99.90;;;;;;4993709;28;20244;-49
2022/10/08 04:02:59;;;;;;;10.37;3.60;;;12.70;99.90;;;;;;4994130;28;20231;-51
2022/10/08 04:05:27;;;;;;;9.73;3.57;;;12.70;99.90;;;;;;4994612;28;20683;-48
2022/10/08 04:07:57;;;;;;;11.20;3.70;;;12.70;99.90;;;;;;4994400;28;20229;-50
2022/10/08 04:10:25;;;;;;;7.83;3.70;;;12.70;99.90;;;;;;4994184;28;20249;-48
2022/10/08 04:12:53;;;;;;;9.07;3.10;;;12.70;99.90;;;;;;4987090;28;20233;-48
2022/10/08 04:15:21;;;;;;;9.87;3.33;;;12.70;99.90;;;;;;4985029;28;20624;-49
2022/10/08 04:17:49;;;;;;;12.20;3.60;;;12.70;99.90;;;;;;4994052;28;20233;-48
2022/10/08 04:20:17;;;;;;;9.53;3.03;;;12.60;99.90;;;;;;4994612;28;20243;-50
2022/10/08 04:22:45;;;;;;;15.90;3.83;;;12.50;99.90;;;;;;4994111;28;20733;-49
2022/10/08 04:25:15;;;;;;;6.90;3.27;;;12.50;99.90;;;;;;4994028;28;20754;-48
2022/10/08 04:27:43;;;;;;;13.20;3.93;;;12.50;99.90;;;;;;4994027;28;20228;-48
2022/10/08 04:30:11;;;;;;;12.37;3.17;;;12.40;99.90;;;;;;4993385;28;20233;-51
2022/10/08 04:32:39;;;;;;;10.03;3.60;;;12.40;99.90;;;;;;4993440;28;20225;-50
2022/10/08 04:35:08;;;;;;;11.47;3.40;;;12.40;99.90;;;;;;4993652;28;20290;-48
2022/10/08 04:37:36;;;;;;;6.70;3.37;;;12.30;99.90;;;;;;4993131;28;20663;-48
2022/10/08 04:40:04;;;;;;;10.73;3.43;;;12.30;99.90;;;;;;4993602;28;20627;-48
2022/10/08 04:42:34;;;;;;;8.87;3.07;;;12.30;99.90;;;;;;4993560;28;20907;-49
2022/10/08 04:45:02;;;;;;;8.20;3.27;;;12.30;99.90;;;;;;4993546;28;20693;-50
2022/10/08 04:47:30;;;;;;;15.57;3.43;;;12.30;99.90;;;;;;4993111;28;20623;-50
2022/10/08 04:49:58;;;;;;;12.70;3.60;;;12.30;99.90;;;;;;4992678;28;20236;-50
2022/10/08 04:52:26;;;;;;;13.07;3.50;;;12.30;99.90;;;;;;4993588;28;20689;-48
2022/10/08 04:54:54;;;;;;;7.50;3.10;;;12.20;99.90;;;;;;4993266;28;20585;-49
2022/10/08 04:57:22;;;;;;;7.23;2.90;;;12.20;99.90;;;;;;4993455;28;20587;-48
2022/10/08 04:59:51;;;;;;;12.73;3.07;;;12.20;99.90;;;;;;4993458;28;20574;-52
2022/10/08 05:02:39;;;;;;;9.47;3.30;;;12.30;99.90;;;;;;4993118;28;21060;-51
2022/10/08 05:05:08;;;;;;;8.07;3.07;;;12.20;99.90;;;;;;4993346;28;20262;-51
2022/10/08 05:07:36;;;;;;;13.17;3.20;;;12.20;99.90;;;;;;4993017;28;20294;-48
2022/10/08 05:10:05;;;;;;;15.50;3.87;;;12.20;99.90;;;;;;4992909;28;20232;-49
2022/10/08 05:12:33;;;;;;;13.90;3.87;;;12.20;99.90;;;;;;4992640;28;20627;-47
2022/10/08 05:15:02;;;;;;;8.47;2.97;;;12.10;99.90;;;;;;4993744;28;20293;-50
2022/10/08 05:17:30;;;;;;;13.37;3.50;;;12.20;99.90;;;;;;4992970;28;20707;-47
2022/10/08 05:19:58;;;;;;;10.40;3.40;;;12.20;99.90;;;;;;4993325;28;20227;-51
2022/10/08 05:22:26;;;;;;;9.43;3.70;;;12.10;99.90;;;;;;4993038;28;20244;-47
2022/10/08 05:24:54;;;;;;;9.27;3.10;;;12.10;99.90;;;;;;4993627;28;20248;-50
2022/10/08 05:27:22;;;;;;;12.63;4.07;;;12.10;99.90;;;;;;4993078;28;20237;-48
2022/10/08 05:29:50;;;;;;;11.47;3.20;;;12.10;99.90;;;;;;4993477;28;20693;-48
2022/10/08 05:32:19;;;;;;;11.13;4.00;;;12.00;99.90;;;;;;4992848;28;20238;-48
2022/10/08 05:34:48;;;;;;;13.80;4.00;;;12.00;99.90;;;;;;4993423;28;20226;-50
2022/10/08 05:37:16;;;;;;;6.63;3.17;;;12.00;99.90;;;;;;4993152;28;20228;-50
2022/10/08 05:39:44;;;;;;;9.37;2.97;;;12.00;99.90;;;;;;4993148;28;20240;-49
2022/10/08 05:42:12;;;;;;;9.07;3.10;;;12.00;99.90;;;;;;4991221;28;20827;-50
2022/10/08 05:44:40;;;;;;;8.10;3.10;;;12.00;99.90;;;;;;4992519;28;20234;-50
2022/10/08 05:47:12;;;;;;;9.47;3.27;;;12.00;99.90;;;;;;4998789;28;20734;-49
2022/10/08 05:49:42;;;;;;;6.17;2.90;;;12.00;99.90;;;;;;5012624;28;20694;-51
2022/10/08 05:52:10;;;;;;;9.57;3.37;;;12.00;99.90;;;;;;5012992;28;20244;-48
2022/10/08 05:54:38;;;;;;;13.60;3.43;;;12.00;99.90;;;;;;5012444;28;20247;-49
2022/10/08 05:57:06;;;;;;;9.17;3.30;;;12.10;99.90;;;;;;5012960;28;20622;-49
2022/10/08 05:59:34;;;;;;;9.97;3.40;;;12.10;99.90;;;;;;5001753;28;20231;-49
2022/10/08 06:02:02;;;;;;;8.10;3.03;;;12.10;99.90;;;;;;4992270;28;20640;-50
2022/10/08 06:04:30;;;;;;;9.50;3.20;;;12.10;99.90;;;;;;4996982;28;20636;-49
2022/10/08 06:06:59;;;;;;;8.57;3.20;;;12.10;99.90;;;;;;4995366;28;20314;-49
2022/10/08 06:09:27;;;;;;;12.97;2.77;;;12.10;99.90;;;;;;4994880;28;20228;-48
2022/10/08 06:11:55;;;;;;;9.47;3.27;;;12.10;99.90;;;;;;4996657;28;20311;-50
2022/10/08 06:14:24;;;;;;;10.03;3.17;;;12.10;99.90;;;;;;4996689;28;20250;-48
2022/10/08 06:16:52;;;;;;;10.20;2.93;;;12.10;99.90;;;;;;4996737;28;20237;-47
2022/10/08 06:19:20;;;;;;;8.73;3.10;;;12.10;99.90;;;;;;4996404;28;20230;-50
2022/10/08 06:21:49;;;;;;;6.00;2.47;;;12.10;99.90;;;;;;4996600;28;20711;-49
2022/10/08 06:24:18;;;;;;;6.03;2.57;;;12.10;99.90;;;;;;4996792;28;20240;-48
2022/10/08 06:26:46;;;;;;;9.13;2.70;;;12.10;99.90;;;;;;4996238;28;20240;-48
2022/10/08 06:29:17;;;;;;;10.37;3.77;;;12.20;99.90;;;;;;4996340;28;20266;-50
2022/10/08 06:31:46;;;;;;;7.07;2.60;;;12.20;99.90;;;;;;5008444;28;20247;-47
2022/10/08 06:34:14;;;;;;;9.83;3.07;;;12.20;99.90;;;;;;5012627;28;20686;-50
2022/10/08 06:36:42;;;;;;;7.53;2.67;;;12.20;99.90;;;;;;5014018;28;20304;-50
2022/10/08 06:39:12;;;;;;;8.80;2.90;;;12.20;99.90;;;;;;5015668;28;20311;-51
2022/10/08 06:41:42;;;;;;;8.17;2.80;;;12.20;99.90;;;;;;5022779;28;20227;-48
2022/10/08 06:44:12;;;;;;;10.03;3.10;;;12.30;99.90;;;;;;5008062;28;20704;-50
2022/10/08 06:46:40;;;;;;;6.70;2.60;;;12.50;99.90;;;;;;5015361;28;20242;-48
2022/10/08 06:49:10;;;;;;;7.27;2.67;;;12.50;99.90;;;;;;5015743;28;20631;-48
2022/10/08 06:51:38;;;;;;;12.03;2.60;;;12.70;99.90;;;;;;5015742;28;20232;-51
2022/10/08 06:54:06;;;;;;;8.63;2.73;;;12.80;99.90;;;;;;5013393;28;20683;-48
2022/10/08 06:56:37;;;;;;;7.17;2.40;;;13.00;99.90;;;;;;5015148;28;20760;-50
2022/10/08 06:59:07;;;;;;;7.50;2.73;;;13.10;99.90;;;;;;5015760;28;20236;-52
2022/10/08 07:01:35;;;;;;;8.00;2.40;;;13.20;99.90;;;;;;5014699;28;20271;-48
2022/10/08 07:04:05;;;;;;;10.37;2.93;;;13.40;99.90;;;;;;5015240;28;20240;-48
2022/10/08 07:06:33;;;;;;;5.97;2.50;;;13.50;99.90;;;;;;5015244;28;20708;-54
2022/10/08 07:09:02;;;;;;;8.10;2.40;;;13.60;99.90;;;;;;5015041;28;20569;-47
2022/10/08 07:11:32;;;;;;;5.87;2.47;;;13.70;99.90;;;;;;5014860;28;20306;-49
2022/10/08 07:14:00;;;;;;;6.30;2.37;;;13.80;99.90;;;;;;5014151;28;20231;-49
2022/10/08 07:16:30;;;;;;;7.10;2.03;;;13.90;99.90;;;;;;5015134;28;20700;-50
2022/10/08 07:18:58;;;;;;;8.57;2.87;;;13.90;99.90;;;;;;5014929;28;20261;-48
2022/10/08 07:21:27;;;;;;;5.23;2.00;;;13.90;99.90;;;;;;5015022;28;20693;-48
2022/10/08 07:23:56;;;;;;;7.40;2.10;;;13.90;99.90;;;;;;5014693;28;20591;-48
2022/10/08 07:26:26;;;;;;;9.07;2.63;;;13.70;99.90;;;;;;5014661;28;20236;-49
2022/10/08 07:28:57;;;;;;;9.03;2.27;;;13.80;99.90;;;;;;5014979;28;20621;-51
2022/10/08 07:31:26;;;;;;;7.17;2.53;;;14.10;99.90;;;;;;5014579;28;20294;-50
2022/10/08 07:33:57;;;;;;;7.17;2.33;;;14.30;99.90;;;;;;5015099;28;20564;-48
2022/10/08 07:36:26;;;;;;;4.17;2.10;;;14.50;99.90;;;;;;5014737;28;20224;-50
2022/10/08 07:38:55;;;;;;;8.50;2.40;;;14.50;99.90;;;;;;5015051;28;20221;-50
2022/10/08 07:41:24;;;;;;;5.50;2.37;;;14.70;99.90;;;;;;5014666;28;20695;-48
2022/10/08 07:43:54;;;;;;;7.10;2.17;;;14.80;99.90;;;;;;5013983;28;20228;-49
2022/10/08 07:46:22;;;;;;;6.00;2.00;;;14.80;99.90;;;;;;5014364;28;20236;-47
2022/10/08 07:48:50;;;;;;;4.70;2.00;;;15.00;99.90;;;;;;5014439;28;20680;-51
2022/10/08 07:51:20;;;;;;;8.90;2.30;;;15.20;99.90;;;;;;5014760;28;20229;-49
2022/10/08 07:53:49;;;;;;;4.73;2.13;;;15.20;99.90;;;;;;5013792;28;20236;-49
2022/10/08 07:56:19;;;;;;;8.03;2.03;;;15.30;99.90;;;;;;5013815;28;20225;-50
2022/10/08 07:58:47;;;;;;;6.00;2.30;;;15.40;99.90;;;;;;5013958;28;20236;-51
2022/10/08 08:01:17;;;;;;;7.30;2.20;;;15.60;99.90;;;;;;5013759;28;20237;-48
2022/10/08 08:03:45;;;;;;;7.37;2.47;;;15.70;99.90;;;;;;5014018;28;20236;-48
2022/10/08 08:06:15;;;;;;;8.13;2.03;;;15.80;99.90;;;;;;5014060;28;20597;-48
2022/10/08 08:08:46;;;;;;;8.07;2.10;;;15.80;99.90;;;;;;5013636;28;20698;-50
2022/10/08 08:11:18;;;;;;;7.20;2.10;;;15.90;99.90;;;;;;5012409;28;20252;-50
2022/10/08 08:13:46;;;;;;;10.13;2.13;;;16.00;99.90;;;;;;5013828;28;20237;-50
2022/10/08 08:16:16;;;;;;;7.17;2.07;;;16.20;99.90;;;;;;5014243;28;20236;-50
2022/10/08 08:18:47;;;;;;;9.93;2.60;;;16.20;99.90;;;;;;5013893;28;20600;-49
2022/10/08 08:21:18;;;;;;;6.67;1.87;;;16.30;99.90;;;;;;5014191;28;20585;-50
2022/10/08 08:23:48;;;;;;;5.30;1.60;;;16.40;99.90;;;;;;5013834;28;20696;-50
2022/10/08 08:26:18;;;;;;;9.20;2.00;;;16.50;99.90;;;;;;5014084;28;20716;-50
2022/10/08 08:28:51;;;;;;;8.00;1.97;;;16.40;99.90;;;;;;5013561;28;20237;-49
2022/10/08 08:31:21;;;;;;;8.00;1.83;;;16.30;99.90;;;;;;5013365;28;20233;-51
2022/10/08 08:33:50;;;;;;;6.70;2.13;;;16.10;99.90;;;;;;5013382;28;20229;-50
2022/10/08 08:36:18;;;;;;;8.13;1.83;;;15.90;99.90;;;;;;5013939;28;20229;-52
2022/10/08 08:38:48;;;;;;;5.53;1.90;;;15.50;99.90;;;;;;5013581;28;21083;-50
2022/10/08 08:41:32;;;;;;;6.50;2.77;;;15.40;99.90;;;;;;5012771;28;20229;-49
2022/10/08 08:44:03;;;;;;;5.97;2.20;;;15.40;99.90;;;;;;5012206;28;20283;-49
2022/10/08 08:46:39;;;;;;;11.53;2.43;;;15.50;99.90;;;;;;5013161;28;20225;-51
2022/10/08 08:49:16;;;;;;;6.13;1.80;;;16.00;99.90;;;;;;5012981;28;20220;-48
2022/10/08 08:51:44;;;;;;;7.33;1.97;;;16.20;99.90;;;;;;5013579;28;20233;-49
2022/10/08 08:54:13;;;;;;;5.73;1.90;;;16.50;99.90;;;;;;5013341;28;20225;-48
2022/10/08 08:56:42;;;;;;;5.93;1.80;;;17.00;99.90;;;;;;5012326;28;20225;-50
2022/10/08 08:59:24;;;;;;;5.83;1.57;;;17.20;99.90;;;;;;5013191;28;20230;-51
2022/10/08 09:01:56;;;;;;;8.27;2.13;;;17.40;99.90;;;;;;5012105;28;20233;-47
2022/10/08 09:04:33;;;;;;;6.10;1.70;;;17.50;99.90;;;;;;5013157;28;20238;-47
2022/10/08 09:07:06;;;;;;;6.67;1.77;;;17.60;99.90;;;;;;5013094;28;20292;-52
2022/10/08 09:09:39;;;;;;;6.30;1.50;;;17.80;99.90;;;;;;5008010;28;20224;-47
2022/10/08 09:12:16;;;;;;;4.97;1.57;;;17.80;99.90;;;;;;5012406;28;20238;-50
2022/10/08 09:14:53;;;;;;;6.07;1.40;;;18.00;99.90;;;;;;5012790;28;20220;-49
2022/10/08 09:17:29;;;;;;;3.77;1.30;;;18.10;99.90;;;;;;5012823;28;20593;-48
2022/10/08 09:19:59;;;;;;;6.77;1.50;;;18.00;99.90;;;;;;5012673;28;20229;-48
2022/10/08 09:22:29;;;;;;;3.97;1.50;;;18.20;99.90;;;;;;5012764;28;20237;-51
2022/10/08 09:25:00;;;;;;;6.13;1.57;;;18.30;99.90;;;;;;5012884;28;20236;-48
2022/10/08 09:27:44;;;;;;;3.80;1.30;;;18.40;99.90;;;;;;5012801;28;20240;-51
2022/10/08 09:30:32;;;;;;;4.30;1.07;;;18.20;99.90;;;;;;5012684;28;20234;-50
2022/10/08 09:33:03;;;;;;;5.33;1.10;;;18.60;99.90;;;;;;5006945;28;20233;-48
2022/10/08 09:35:33;;;;;;;4.33;1.50;;;19.00;99.90;;;;;;5008348;28;20627;-49
2022/10/08 09:38:02;;;;;;;4.40;1.37;;;19.10;99.90;;;;;;5012365;28;20699;-51
2022/10/08 09:40:34;;;;;;;2.87;1.03;;;19.00;99.90;;;;;;5012634;28;20266;-50
2022/10/08 09:43:20;;;;;;;4.23;1.10;;;19.00;99.90;;;;;;5012924;28;20237;-48
2022/10/08 09:45:49;;;;;;;4.77;1.20;;;18.60;99.90;;;;;;5012091;28;20291;-50
2022/10/08 09:48:28;;;;;;;4.50;1.40;;;18.00;99.90;;;;;;5010709;28;20227;-49
2022/10/08 09:51:02;;;;;;;3.00;1.07;;;17.90;99.90;;;;;;5004514;28;20705;-50
2022/10/08 09:53:35;;;;;;;4.10;1.10;;;18.30;99.90;;;;;;5011197;28;20228;-50
2022/10/08 09:56:06;;;;;;;3.17;1.53;;;18.30;99.90;;;;;;5007089;28;20289;-50
2022/10/08 09:58:46;;;;;;;3.67;1.00;;;18.00;99.90;;;;;;5022756;28;20280;-50
2022/10/08 10:01:16;;;;;;;4.43;1.30;;;17.90;99.90;;;;;;5022048;28;20227;-52
2022/10/08 10:03:50;;;;;;;5.23;1.20;;;17.90;99.90;;;;;;5022670;28;20229;-52
2022/10/08 10:06:28;;;;;;;3.83;1.13;;;17.40;99.90;;;;;;5023690;28;20222;-50
2022/10/08 10:09:05;;;;;;;5.80;1.37;;;17.50;99.90;;;;;;5024960;28;20735;-51
2022/10/08 10:11:38;;;;;;;4.97;1.23;;;17.30;99.90;;;;;;5024888;28;20256;-49
2022/10/08 10:14:18;;;;;;;8.80;1.67;;;17.40;99.90;;;;;;5024633;28;20761;-52
2022/10/08 10:16:49;;;;;;;4.67;1.50;;;17.50;99.90;;;;;;5024415;28;20233;-50
2022/10/08 10:19:22;;;;;;;3.43;1.20;;;17.50;99.90;;;;;;5026285;28;20214;-51
2022/10/08 10:21:56;;;;;;;4.90;1.60;;;18.00;99.90;;;;;;5026609;28;20244;-51
2022/10/08 10:24:36;;;;;;;6.00;1.33;;;18.00;99.90;;;;;;5024820;28;20227;-50
2022/10/08 10:27:10;;;;;;;4.10;1.00;;;18.00;99.90;;;;;;5026186;28;20242;-50
2022/10/08 10:29:48;;;;;;;6.43;1.33;;;17.80;99.90;;;;;;5026390;28;20259;-50
2022/10/08 10:32:21;;;;;;;4.27;1.40;;;17.60;99.90;;;;;;5023875;28;20244;-50
2022/10/08 10:34:58;;;;;;;5.57;1.53;;;17.60;99.90;;;;;;5026654;28;20219;-51
2022/10/08 10:37:33;;;;;;;5.53;1.37;;;17.60;99.90;;;;;;5025032;28;20740;-50
2022/10/08 10:40:21;;;;;;;4.23;1.20;;;17.90;99.90;;;;;;5019999;28;20225;-52
2022/10/08 10:42:58;;;;;;;8.47;1.50;;;18.40;99.90;;;;;;5021953;28;20229;-50
2022/10/08 10:45:31;;;;;;;7.40;1.53;;;18.50;99.90;;;;;;5023650;28;20231;-49
2022/10/08 10:47:59;;;;;;;5.00;1.37;;;18.10;99.90;;;;;;5026344;28;20242;-50
2022/10/08 10:50:37;;;;;;;5.83;1.27;;;18.10;99.90;;;;;;5029347;28;20236;-50
2022/10/08 10:53:15;;;;;;;3.00;1.00;;;17.90;99.90;;;;;;5029719;28;20226;-49
2022/10/08 10:55:52;;;;;;;5.50;1.20;;;17.50;99.90;;;;;;5020837;28;20282;-48
2022/10/08 10:58:40;;;;;;;4.70;1.00;;;17.30;99.90;;;;;;5022175;28;20321;-49
2022/10/08 11:01:19;;;;;;;3.57;1.20;;;17.10;99.90;;;;;;5022117;28;20705;-48
2022/10/08 11:03:57;;;;;;;2.73;0.93;;;16.90;99.90;;;;;;5022271;28;20224;-49
2022/10/08 11:06:57;;;;;;;3.60;0.70;;;16.50;99.90;;;;;;5026141;28;20271;-50
2022/10/08 11:10:03;;;;;;;2.13;0.60;;;16.70;99.90;;;;;;5025668;28;20235;-49
2022/10/08 11:12:42;;;;;;;6.73;0.77;;;16.80;99.90;;;;;;5025941;28;20221;-49
2022/10/08 11:15:22;;;;;;;2.77;0.80;;;17.10;99.90;;;;;;5022996;28;20222;-50
2022/10/08 11:18:06;;;;;;;2.53;0.60;;;17.30;99.90;;;;;;5024559;28;20239;-48
2022/10/08 11:20:47;;;;;;;1.70;0.70;;;17.40;99.90;;;;;;5025295;28;20280;-48
2022/10/08 11:23:32;;;;;;;1.87;0.70;;;17.10;99.90;;;;;;5025347;28;20253;-50
2022/10/08 11:26:05;;;;;;;3.73;0.80;;;17.50;99.90;;;;;;5028411;28;20748;-52
2022/10/08 11:29:03;;;;;;;1.47;0.60;;;17.60;99.90;;;;;;5026034;28;20231;-48
2022/10/08 11:31:40;;;;;;;3.23;0.77;;;17.50;99.90;;;;;;5025675;28;20238;-50
2022/10/08 11:34:26;;;;;;;2.93;0.70;;;17.40;99.90;;;;;;5024911;28;20286;-49
2022/10/08 11:37:11;;;;;;;2.20;0.60;;;17.10;99.90;;;;;;5022730;28;20591;-48
2022/10/08 11:39:52;;;;;;;3.97;0.83;;;17.20;99.90;;;;;;5023482;28;20230;-51
2022/10/08 11:42:29;;;;;;;6.00;0.80;;;17.40;99.90;;;;;;5026364;28;20233;-49
2022/10/08 11:45:28;;;;;;;1.60;0.60;;;17.70;99.90;;;;;;5026700;28;20323;-50
2022/10/08 11:47:59;;;;;;;3.57;0.80;;;17.70;99.90;;;;;;5026852;28;20233;-48
2022/10/08 11:50:30;;;;;;;2.60;0.80;;;17.40;99.90;;;;;;5027686;28;20281;-49
2022/10/08 11:53:13;;;;;;;2.87;0.73;;;17.50;99.90;;;;;;5024630;28;20233;-52
2022/10/08 11:55:51;;;;;;;4.07;1.20;;;17.40;99.90;;;;;;5027345;28;20220;-49
2022/10/08 11:58:22;;;;;;;4.77;1.20;;;17.40;99.90;;;;;;5025742;28;20220;-49
2022/10/08 12:00:53;;;;;;;2.53;0.90;;;17.10;99.90;;;;;;5025119;28;20241;-50
2022/10/08 12:03:26;;;;;;;4.43;1.40;;;16.80;99.90;;;;;;5023355;28;20232;-50
2022/10/08 12:05:59;;;;;;;2.10;0.90;;;16.40;99.90;;;;;;5027845;28;20221;-49
2022/10/08 12:08:53;;;;;;;7.93;1.10;;;16.10;99.90;;;;;;5028323;28;20645;-50
2022/10/08 12:11:50;;;;;;;6.20;0.97;;;15.90;99.90;;;;;;5025228;28;20248;-49
2022/10/08 12:14:32;;;;;;;4.27;0.87;;;16.00;99.90;;;;;;5024467;28;20318;-49
2022/10/08 12:17:11;;;;;;;4.07;0.90;;;16.20;99.90;;;;;;5026552;28;20225;-53
2022/10/08 12:20:16;;;;;;;5.20;1.00;;;16.40;99.90;;;;;;5010041;28;20228;-51
2022/10/08 12:23:02;;;;;;;3.40;0.93;;;16.30;99.90;;;;;;5021947;28;20235;-50
2022/10/08 12:25:42;;;;;;;2.60;0.87;;;16.30;99.90;;;;;;5026710;28;20217;-51
2022/10/08 12:28:46;;;;;;;2.03;0.90;;;16.50;99.90;;;;;;5027753;28;20220;-50
2022/10/08 12:31:23;;;;;;;5.40;1.23;;;16.60;99.90;;;;;;5027247;28;20259;-52
2022/10/08 12:34:00;;;;;;;4.03;1.10;;;16.60;99.90;;;;;;5027312;28;20271;-52
2022/10/08 12:36:43;;;;;;;5.73;1.40;;;16.60;99.90;;;;;;5026398;28;20223;-50
2022/10/08 12:39:19;;;;;;;6.37;1.10;;;16.60;99.90;;;;;;5027442;28;20233;-50
2022/10/08 12:41:58;;;;;;;6.37;1.00;;;16.50;99.90;;;;;;5027930;28;20695;-51
2022/10/08 12:44:38;;;;;;;4.20;1.23;;;16.40;99.90;;;;;;5026823;28;20323;-51
2022/10/08 12:47:20;;;;;;;5.70;1.17;;;16.40;99.90;;;;;;5023968;28;20315;-50
2022/10/08 12:49:56;;;;;;;3.63;1.00;;;16.40;99.90;;;;;;5024444;28;20275;-52
2022/10/08 12:52:26;;;;;;;3.70;1.07;;;16.40;99.90;;;;;;5027197;28;20278;-48
2022/10/08 12:54:57;;;;;;;5.73;1.17;;;16.50;99.90;;;;;;5027523;28;20231;-50
2022/10/08 12:57:30;;;;;;;4.97;1.10;;;16.40;99.90;;;;;;5027127;28;20777;-49
2022/10/08 13:00:05;;;;;;;4.47;1.20;;;16.50;99.90;;;;;;5022978;28;20704;-51
2022/10/08 13:02:37;;;;;;;5.97;1.13;;;16.70;99.90;;;;;;5026464;28;20232;-48
2022/10/08 13:05:22;;;;;;;6.13;1.10;;;16.50;99.90;;;;;;5027138;28;20237;-49
2022/10/08 13:07:53;;;;;;;6.23;1.40;;;16.70;99.90;;;;;;5027255;28;20233;-50
2022/10/08 13:10:24;;;;;;;5.50;1.53;;;16.80;99.90;;;;;;5025384;28;20256;-50
2022/10/08 13:13:02;;;;;;;5.10;1.33;;;17.10;99.90;;;;;;5027569;28;20678;-52